Time;durP1;ratioP1;P1;durP2;ratioP2;P2;SDS_P1;SDS_P2;PMS_P1;PMS_P2;Temp;Humidity;BMP_temperature;BMP_pressure;BME280_temperature;BME280_humidity;BME280_pressure;Samples;Min_cycle;Max_cycle;Signal;HPM_P1;HPM_P2
2022/07/21 00:02:19;;;;;;;10.68;8.90;;;;;;;19.18;99.58;101578.53;5225474;28;20764;-71
2022/07/21 00:04:50;;;;;;;11.95;9.30;;;;;;;19.20;100.00;101570.25;5224974;28;20036;-70
2022/07/21 00:07:21;;;;;;;10.95;9.05;;;;;;;19.18;99.53;101572.28;5225580;28;20039;-71
2022/07/21 00:09:53;;;;;;;10.43;8.88;;;;;;;19.02;100.00;101572.94;5227572;28;20243;-71
2022/07/21 00:12:26;;;;;;;11.53;9.73;;;;;;;19.00;100.00;101580.38;5224787;28;20188;-71
2022/07/21 00:14:57;;;;;;;9.70;8.70;;;;;;;19.00;100.00;101581.25;5231503;28;20036;-71
2022/07/21 00:17:31;;;;;;;10.32;8.63;;;;;;;18.95;100.00;101575.44;5227710;28;20025;-70
2022/07/21 00:20:04;;;;;;;10.82;8.95;;;;;;;19.05;99.96;101571.81;5240363;28;20036;-70
2022/07/21 00:22:36;;;;;;;11.13;9.13;;;;;;;18.84;100.00;101569.41;5224398;28;20028;-70
2022/07/21 00:25:09;;;;;;;11.07;9.68;;;;;;;18.93;100.00;101574.75;5235023;28;20122;-70
2022/07/21 00:27:41;;;;;;;11.10;9.45;;;;;;;18.83;100.00;101587.50;5237259;28;20075;-70
2022/07/21 00:30:13;;;;;;;11.07;8.95;;;;;;;18.92;100.00;101583.84;5234198;28;20119;-70
2022/07/21 00:32:44;;;;;;;12.52;9.50;;;;;;;18.80;100.00;101582.38;5238197;28;20040;-71
2022/07/21 00:35:16;;;;;;;10.90;9.10;;;;;;;18.83;100.00;101582.09;5233449;28;20036;-71
2022/07/21 00:37:47;;;;;;;10.18;9.10;;;;;;;18.72;100.00;101587.69;5232612;28;20031;-71
2022/07/21 00:40:19;;;;;;;10.73;9.63;;;;;;;18.64;100.00;101588.44;5223620;28;20108;-71
2022/07/21 00:42:50;;;;;;;12.68;9.65;;;;;;;18.68;100.00;101586.25;5236421;28;20115;-70
2022/07/21 00:45:22;;;;;;;11.13;9.18;;;;;;;18.73;100.00;101589.38;5226671;28;20094;-71
2022/07/21 00:47:53;;;;;;;11.15;10.02;;;;;;;18.61;100.00;101586.88;5226254;28;20025;-69
2022/07/21 00:50:24;;;;;;;12.25;9.18;;;;;;;18.69;100.00;101587.97;5237161;28;20467;-69
2022/07/21 00:52:55;;;;;;;11.20;10.00;;;;;;;18.57;100.00;101590.06;5223761;28;20164;-71
2022/07/21 00:55:27;;;;;;;10.65;9.55;;;;;;;18.67;100.00;101590.00;5231313;28;20036;-70
2022/07/21 00:57:58;;;;;;;11.43;9.43;;;;;;;18.57;100.00;101584.66;5246309;28;20040;-70
2022/07/21 01:00:31;;;;;;;12.27;10.40;;;;;;;18.53;100.00;101576.00;5238410;28;20105;-70
2022/07/21 01:03:02;;;;;;;11.60;10.38;;;;;;;18.64;100.00;101584.88;5231718;28;20470;-70
2022/07/21 01:05:34;;;;;;;11.15;9.98;;;;;;;18.53;100.00;101569.75;5239580;28;20043;-70
2022/07/21 01:08:06;;;;;;;11.75;10.05;;;;;;;18.55;100.00;101568.56;5236116;28;20032;-70
2022/07/21 01:10:39;;;;;;;13.07;10.95;;;;;;;18.41;100.00;101558.28;5235985;28;20503;-70
2022/07/21 01:13:10;;;;;;;12.45;10.65;;;;;;;18.36;100.00;101550.63;5240563;28;20045;-70
2022/07/21 01:15:42;;;;;;;15.30;11.38;;;;;;;18.35;100.00;101561.56;5229020;28;20164;-70
2022/07/21 01:18:14;;;;;;;12.50;11.15;;;;;;;18.31;100.00;101560.19;5235709;28;20394;-70
2022/07/21 01:20:51;;;;;;;12.48;11.18;;;;;;;18.26;100.00;101554.41;5236921;28;20111;-70
2022/07/21 01:23:22;;;;;;;14.07;11.80;;;;;;;18.28;100.00;101552.41;5233328;28;20053;-70
2022/07/21 01:25:54;;;;;;;12.27;10.73;;;;;;;18.28;100.00;101555.94;5244121;28;20465;-70
2022/07/21 01:28:25;;;;;;;12.20;10.93;;;;;;;18.22;100.00;101557.38;5245959;28;20029;-70
2022/07/21 01:30:56;;;;;;;13.02;11.63;;;;;;;18.18;100.00;101545.19;5236714;28;20033;-70
2022/07/21 01:33:28;;;;;;;11.68;10.48;;;;;;;18.23;100.00;101556.38;5234439;28;20179;-71
2022/07/21 01:35:59;;;;;;;14.15;12.15;;;;;;;18.22;100.00;101559.25;5231568;28;20323;-71
2022/07/21 01:41:29;;;;;;;12.73;11.30;;;;;;;18.32;100.00;101560.03;5236450;28;20391;-70
2022/07/21 01:44:11;;;;;;;13.32;11.32;;;;;;;18.39;100.00;101550.34;5232997;28;20674;-70
2022/07/21 01:46:45;;;;;;;13.82;11.38;;;;;;;18.22;100.00;101559.25;5247386;28;20029;-70
2022/07/21 01:49:18;;;;;;;12.57;11.25;;;;;;;18.26;100.00;101562.50;5239844;28;20026;-70
2022/07/21 01:51:50;;;;;;;13.68;12.05;;;;;;;18.36;100.00;101563.28;5241129;28;20497;-70
2022/07/21 01:54:21;;;;;;;14.32;11.23;;;;;;;18.31;100.00;101565.59;5239394;28;20438;-70
2022/07/21 01:56:53;;;;;;;12.93;11.50;;;;;;;18.37;100.00;101557.75;5239816;28;20139;-70
2022/07/21 01:59:24;;;;;;;13.10;10.90;;;;;;;18.39;100.00;101566.53;5244792;28;20029;-70
2022/07/21 02:01:55;;;;;;;12.65;10.88;;;;;;;18.50;100.00;101568.16;5238486;28;20045;-70
2022/07/21 02:04:26;;;;;;;13.50;12.10;;;;;;;18.39;100.00;101557.59;5240221;28;20040;-70
2022/07/21 02:06:58;;;;;;;13.45;11.48;;;;;;;18.38;100.00;101554.03;5242230;28;20033;-70
2022/07/21 02:09:29;;;;;;;14.15;12.45;;;;;;;18.36;100.00;101555.19;5247971;28;20497;-71
2022/07/21 02:12:01;;;;;;;14.35;12.50;;;;;;;18.32;100.00;101559.19;5241196;28;20031;-71
2022/07/21 02:14:32;;;;;;;14.32;12.82;;;;;;;18.31;100.00;101557.47;5241397;28;20036;-70
2022/07/21 02:17:03;;;;;;;14.82;12.40;;;;;;;18.37;100.00;101564.97;5239018;28;20045;-71
2022/07/21 02:19:34;;;;;;;13.30;11.68;;;;;;;18.32;100.00;101557.34;5239654;28;20542;-71
2022/07/21 02:22:09;;;;;;;13.60;12.20;;;;;;;18.31;100.00;101552.91;5239383;28;20387;-70
2022/07/21 02:24:40;;;;;;;14.13;12.10;;;;;;;18.41;100.00;101551.03;5243668;28;20041;-70
2022/07/21 02:27:12;;;;;;;14.98;12.18;;;;;;;18.36;100.00;101547.09;5242098;28;20435;-70
2022/07/21 02:29:43;;;;;;;14.40;12.90;;;;;;;18.40;100.00;101538.50;5237842;28;20284;-70
2022/07/21 02:32:14;;;;;;;15.45;12.63;;;;;;;18.41;100.00;101537.53;5240639;28;20045;-71
2022/07/21 02:34:45;;;;;;;14.38;12.00;;;;;;;18.39;100.00;101538.69;5238790;28;20036;-71
2022/07/21 02:37:17;;;;;;;15.40;13.80;;;;;;;18.35;100.00;101546.25;5238956;28;20035;-71
2022/07/21 02:39:49;;;;;;;14.30;12.80;;;;;;;18.41;100.00;101545.63;5242665;28;20079;-71
2022/07/21 02:42:20;;;;;;;14.68;13.18;;;;;;;18.38;100.00;101543.22;5242017;28;20052;-70
2022/07/21 02:44:51;;;;;;;16.27;13.38;;;;;;;18.33;100.00;101545.53;5236742;28;20025;-70
2022/07/21 02:47:22;;;;;;;15.15;13.55;;;;;;;18.40;100.00;101543.91;5231325;28;20619;-70
2022/07/21 02:49:54;;;;;;;17.00;13.25;;;;;;;18.39;100.00;101535.97;5237895;28;20029;-70
2022/07/21 02:52:25;;;;;;;16.20;13.65;;;;;;;18.44;100.00;101539.06;5232797;28;20098;-70
2022/07/21 02:54:56;;;;;;;18.38;14.77;;;;;;;18.41;100.00;101539.38;5243988;28;20495;-70
2022/07/21 02:57:28;;;;;;;17.10;13.88;;;;;;;18.53;100.00;101545.41;5239492;28;20029;-71
2022/07/21 02:59:59;;;;;;;14.88;13.32;;;;;;;18.48;100.00;101543.16;5233935;28;20103;-71
2022/07/21 03:02:31;;;;;;;16.88;14.80;;;;;;;18.58;100.00;101538.56;5240475;28;20045;-71
2022/07/21 03:05:03;;;;;;;16.38;14.63;;;;;;;18.44;100.00;101535.50;5234086;28;20108;-71
2022/07/21 03:07:35;;;;;;;17.25;14.32;;;;;;;18.52;100.00;101541.84;5237425;28;20078;-71
2022/07/21 03:10:06;;;;;;;18.83;15.15;;;;;;;18.48;100.00;101542.31;5234154;28;20123;-71
2022/07/21 03:12:38;;;;;;;15.77;14.15;;;;;;;18.53;100.00;101532.75;5235661;28;20025;-71
2022/07/21 03:15:09;;;;;;;15.75;14.10;;;;;;;18.55;100.00;101533.44;5238529;28;20033;-71
2022/07/21 03:17:41;;;;;;;19.33;15.40;;;;;;;18.49;100.00;101534.06;5245532;28;20032;-71
2022/07/21 03:20:12;;;;;;;19.27;14.55;;;;;;;18.56;100.00;101535.16;5240506;28;20486;-71
2022/07/21 03:22:43;;;;;;;15.85;14.00;;;;;;;18.57;100.00;101533.28;5241202;28;20029;-71
2022/07/21 03:25:16;;;;;;;16.65;14.52;;;;;;;18.52;100.00;101525.63;5248178;28;20067;-71
2022/07/21 03:27:48;;;;;;;16.52;14.45;;;;;;;18.53;100.00;101538.16;5235963;28;20029;-71
2022/07/21 03:30:21;;;;;;;15.70;13.13;;;;;;;18.67;100.00;101536.75;5235078;28;20029;-70
2022/07/21 03:32:53;;;;;;;17.63;14.48;;;;;;;18.66;100.00;101529.69;5234487;28;20017;-70
2022/07/21 03:35:24;;;;;;;18.27;13.77;;;;;;;18.61;100.00;101538.22;5229740;28;20040;-71
2022/07/21 03:37:58;;;;;;;15.88;14.20;;;;;;;18.54;100.00;101537.16;5240385;28;20107;-71
2022/07/21 03:40:32;;;;;;;17.23;14.30;;;;;;;18.61;100.00;101543.63;5235018;28;20033;-71
2022/07/21 03:43:05;;;;;;;18.53;14.43;;;;;;;18.49;100.00;101539.47;5235058;28;20108;-71
2022/07/21 03:45:37;;;;;;;16.23;14.40;;;;;;;18.55;100.00;101548.81;5238681;28;20284;-71
2022/07/21 03:48:09;;;;;;;19.25;14.68;;;;;;;18.57;100.00;101542.25;5242301;28;20127;-71
2022/07/21 03:50:42;;;;;;;15.95;14.35;;;;;;;18.47;100.00;101548.72;5243824;28;20040;-71
2022/07/21 03:53:13;;;;;;;16.83;14.02;;;;;;;18.50;100.00;101540.31;5231409;28;20490;-71
2022/07/21 03:55:45;;;;;;;16.38;13.60;;;;;;;18.55;100.00;101543.41;5237796;28;20033;-71
2022/07/21 03:58:17;;;;;;;15.85;13.57;;;;;;;18.48;100.00;101545.00;5234764;28;20033;-71
2022/07/21 04:00:48;;;;;;;18.73;13.63;;;;;;;18.48;100.00;101548.56;5231419;28;20297;-71
2022/07/21 04:03:20;;;;;;;15.65;13.35;;;;;;;18.53;100.00;101540.84;5235215;28;20087;-71
2022/07/21 04:05:51;;;;;;;17.70;13.65;;;;;;;18.51;100.00;101552.84;5239185;28;20025;-70
2022/07/21 04:08:22;;;;;;;16.10;13.45;;;;;;;18.49;100.00;101560.25;5232861;28;20041;-70
2022/07/21 04:10:53;;;;;;;16.02;12.85;;;;;;;18.58;100.00;101565.59;5240510;28;20577;-70
2022/07/21 04:13:25;;;;;;;15.93;13.48;;;;;;;18.52;100.00;101568.88;5238760;28;20044;-70
2022/07/21 04:15:56;;;;;;;19.15;13.07;;;;;;;18.72;100.00;101568.75;5233059;28;20061;-70
2022/07/21 04:18:28;;;;;;;15.15;12.88;;;;;;;18.60;100.00;101574.38;5238884;28;20439;-70
2022/07/21 04:20:59;;;;;;;17.08;13.50;;;;;;;18.46;100.00;101558.66;5232942;28;20115;-70
2022/07/21 04:23:31;;;;;;;16.35;13.55;;;;;;;18.46;100.00;101553.25;5232370;28;20025;-70
2022/07/21 04:26:02;;;;;;;14.82;13.07;;;;;;;18.48;100.00;101559.38;5236013;28;20487;-70
2022/07/21 04:28:33;;;;;;;17.95;13.65;;;;;;;18.37;100.00;101554.16;5236142;28;20641;-70
2022/07/21 04:31:05;;;;;;;16.65;13.93;;;;;;;18.22;100.00;101549.28;5238763;28;20029;-70
2022/07/21 04:33:37;;;;;;;17.65;13.38;;;;;;;18.16;100.00;101544.50;5239126;28;20024;-71
2022/07/21 04:36:08;;;;;;;16.23;12.70;;;;;;;18.14;100.00;101540.22;5226923;28;20694;-71
2022/07/21 04:38:39;;;;;;;18.35;14.10;;;;;;;18.11;100.00;101543.25;5232569;28;20443;-71
2022/07/21 04:41:11;;;;;;;18.05;14.05;;;;;;;18.10;100.00;101539.69;5233385;28;20112;-71
2022/07/21 04:43:42;;;;;;;18.08;14.40;;;;;;;18.07;100.00;101549.94;5237221;28;20036;-71
2022/07/21 04:46:14;;;;;;;17.27;13.35;;;;;;;18.19;100.00;101549.56;5230851;28;20025;-71
2022/07/21 04:48:46;;;;;;;18.05;13.95;;;;;;;18.19;100.00;101552.28;5230958;28;20045;-71
2022/07/21 04:51:17;;;;;;;17.30;14.70;;;;;;;18.18;100.00;101552.44;5233120;28;20029;-71
2022/07/21 04:53:48;;;;;;;18.92;14.65;;;;;;;18.22;100.00;101554.69;5231147;28;20480;-71
2022/07/21 04:56:20;;;;;;;17.50;14.55;;;;;;;18.11;100.00;101551.34;5231471;28;20056;-71
2022/07/21 04:58:51;;;;;;;19.58;14.63;;;;;;;18.16;100.00;101566.09;5230516;28;20033;-72
2022/07/21 05:01:22;;;;;;;21.67;16.00;;;;;;;18.05;100.00;101557.34;5227690;28;20060;-72
2022/07/21 05:03:53;;;;;;;17.65;14.52;;;;;;;18.17;100.00;101553.44;5239092;28;20040;-72
2022/07/21 05:06:25;;;;;;;18.73;15.52;;;;;;;18.07;100.00;101560.75;5235939;28;20041;-72
2022/07/21 05:08:56;;;;;;;21.08;15.75;;;;;;;18.17;100.00;101559.69;5228490;28;20090;-72
2022/07/21 05:11:28;;;;;;;18.42;15.13;;;;;;;18.15;100.00;101560.84;5235016;28;20163;-72
2022/07/21 05:13:59;;;;;;;18.83;14.70;;;;;;;18.11;100.00;101552.19;5238268;28;20115;-72
2022/07/21 05:16:30;;;;;;;17.63;13.73;;;;;;;18.13;100.00;101558.28;5243211;28;20029;-72
2022/07/21 05:19:02;;;;;;;15.57;13.60;;;;;;;18.21;100.00;101552.13;5234164;28;20375;-71
2022/07/21 05:21:34;;;;;;;16.88;13.55;;;;;;;18.20;100.00;101554.00;5234280;28;20482;-71
2022/07/21 05:24:05;;;;;;;15.73;13.05;;;;;;;18.26;100.00;101552.53;5236587;28;20461;-71
2022/07/21 05:26:36;;;;;;;16.35;13.18;;;;;;;18.38;100.00;101547.78;5238023;28;20489;-72
2022/07/21 05:29:08;;;;;;;14.38;12.88;;;;;;;18.38;100.00;101556.72;5241172;28;20028;-71
2022/07/21 05:31:39;;;;;;;15.30;11.88;;;;;;;18.49;100.00;101552.13;5240018;28;20414;-72
2022/07/21 05:34:10;;;;;;;15.68;12.20;;;;;;;18.49;100.00;101547.56;5240117;28;20040;-72
2022/07/21 05:36:42;;;;;;;15.43;11.95;;;;;;;18.45;100.00;101548.00;5234640;28;20124;-71
2022/07/21 05:39:13;;;;;;;16.65;12.35;;;;;;;18.60;100.00;101546.47;5239489;28;20025;-71
2022/07/21 05:41:45;;;;;;;14.13;11.10;;;;;;;18.68;100.00;101549.28;5241189;28;20115;-72
2022/07/21 05:44:16;;;;;;;16.25;11.90;;;;;;;18.56;100.00;101545.09;5237313;28;20050;-72
2022/07/21 05:46:47;;;;;;;14.52;12.15;;;;;;;18.55;100.00;101541.56;5240732;28;20385;-71
2022/07/21 05:49:19;;;;;;;16.02;11.98;;;;;;;18.62;100.00;101544.50;5242740;28;20025;-71
2022/07/21 05:51:50;;;;;;;16.25;12.88;;;;;;;18.57;100.00;101544.09;5242174;28;20033;-72
2022/07/21 05:54:21;;;;;;;17.50;13.20;;;;;;;18.80;100.00;101541.84;5250011;28;20024;-71
2022/07/21 05:56:53;;;;;;;15.65;13.02;;;;;;;18.78;100.00;101541.09;5232257;28;20029;-71
2022/07/21 05:59:24;;;;;;;16.73;12.82;;;;;;;18.79;100.00;101546.38;5243153;28;20056;-71
2022/07/21 06:01:55;;;;;;;16.23;13.02;;;;;;;18.88;100.00;101550.00;5236676;28;20138;-71
2022/07/21 06:04:27;;;;;;;17.20;13.27;;;;;;;18.99;100.00;101547.06;5245612;28;20091;-71
2022/07/21 06:06:58;;;;;;;17.17;13.85;;;;;;;18.91;100.00;101547.00;5237787;28;20026;-71
2022/07/21 06:09:29;;;;;;;18.70;14.05;;;;;;;18.99;100.00;101549.78;5247559;28;20064;-71
2022/07/21 06:12:01;;;;;;;19.77;14.93;;;;;;;19.13;100.00;101552.94;5238294;28;20027;-71
2022/07/21 06:14:32;;;;;;;20.98;15.52;;;;;;;19.34;100.00;101553.44;5250806;28;20116;-71
2022/07/21 06:17:03;;;;;;;19.25;14.55;;;;;;;19.56;100.00;101532.31;5254244;28;20028;-71
2022/07/21 06:19:35;;;;;;;21.38;16.60;;;;;;;19.80;100.00;101534.31;5233898;28;20176;-71
2022/07/21 06:22:06;;;;;;;23.40;16.10;;;;;;;19.98;100.00;101536.94;5245310;28;20026;-71
2022/07/21 06:24:37;;;;;;;23.42;16.77;;;;;;;20.06;100.00;101547.81;5238576;28;20079;-71
2022/07/21 06:27:08;;;;;;;26.48;16.75;;;;;;;20.23;100.00;101543.31;5244389;28;20035;-71
2022/07/21 06:29:40;;;;;;;24.38;16.75;;;;;;;20.46;100.00;101535.44;5241172;28;20036;-71
2022/07/21 06:32:11;;;;;;;24.27;16.88;;;;;;;20.64;98.83;101542.63;5240824;28;20021;-71
2022/07/21 06:34:42;;;;;;;24.80;16.90;;;;;;;20.85;97.78;101534.84;5247350;28;20115;-71
2022/07/21 06:37:13;;;;;;;21.23;16.48;;;;;;;20.87;99.02;101543.66;5238465;28;20040;-71
2022/07/21 06:39:45;;;;;;;20.60;16.58;;;;;;;20.83;96.64;101542.31;5241000;28;20518;-71
2022/07/21 06:42:16;;;;;;;24.83;17.13;;;;;;;20.81;94.44;101552.47;5237443;28;20436;-71
2022/07/21 06:44:47;;;;;;;22.77;16.80;;;;;;;20.86;96.65;101549.25;5240820;28;20021;-71
2022/07/21 06:47:19;;;;;;;21.27;15.25;;;;;;;20.70;95.88;101550.94;5238590;28;20036;-70
2022/07/21 06:49:50;;;;;;;24.55;17.02;;;;;;;20.82;96.53;101559.59;5235515;28;20061;-70
2022/07/21 06:52:22;;;;;;;21.98;16.48;;;;;;;20.93;94.12;101561.13;5242840;28;20017;-70
2022/07/21 06:54:53;;;;;;;23.98;16.95;;;;;;;20.98;94.82;101561.50;5248063;28;20028;-70
2022/07/21 06:57:24;;;;;;;24.48;16.70;;;;;;;20.80;94.61;101563.50;5238640;28;20029;-70
2022/07/21 06:59:55;;;;;;;20.10;16.17;;;;;;;20.94;95.36;101570.94;5241443;28;20035;-70
2022/07/21 07:02:27;;;;;;;22.85;16.95;;;;;;;20.78;93.38;101571.78;5236312;28;20064;-70
2022/07/21 07:04:58;;;;;;;21.73;15.48;;;;;;;20.82;92.62;101569.59;5238467;28;20032;-70
2022/07/21 07:07:30;;;;;;;23.95;16.90;;;;;;;20.83;95.33;101593.00;5237009;28;20025;-70
2022/07/21 07:10:02;;;;;;;24.13;15.98;;;;;;;20.67;94.32;101582.94;5242192;28;20033;-70
2022/07/21 07:12:33;;;;;;;20.60;15.75;;;;;;;20.67;95.45;101585.66;5237453;28;20021;-70
2022/07/21 07:15:05;;;;;;;21.90;15.68;;;;;;;20.51;94.48;101579.16;5236384;28;20044;-70
2022/07/21 07:17:37;;;;;;;24.13;16.50;;;;;;;20.41;93.92;101578.44;5228884;28;20228;-70
2022/07/21 07:20:08;;;;;;;21.50;16.30;;;;;;;20.35;95.51;101587.25;5238038;28;20760;-70
2022/07/21 07:22:40;;;;;;;23.88;17.90;;;;;;;20.30;97.37;101576.03;5235484;28;20091;-70
2022/07/21 07:25:11;;;;;;;19.70;16.92;;;;;;;20.18;96.49;101581.75;5243309;28;20040;-70
2022/07/21 07:27:53;;;;;;;22.27;15.82;;;;;;;20.12;97.22;101579.69;5244669;28;20029;-71
2022/07/21 07:30:25;;;;;;;20.67;16.15;;;;;;;20.24;98.48;101572.09;5233901;28;20051;-71
2022/07/21 07:32:56;;;;;;;21.90;15.73;;;;;;;20.27;97.81;101579.06;5241964;28;20020;-71
2022/07/21 07:35:28;;;;;;;24.08;16.60;;;;;;;20.13;96.37;101581.38;5247345;28;20799;-72
2022/07/21 07:37:59;;;;;;;20.25;15.95;;;;;;;20.22;100.00;101581.41;5244037;28;20577;-71
2022/07/21 07:40:31;;;;;;;23.73;16.45;;;;;;;20.01;100.00;101574.53;5233074;28;20258;-70
2022/07/21 07:43:02;;;;;;;19.58;15.70;;;;;;;19.61;100.00;101577.84;5232333;28;20041;-71
2022/07/21 07:45:35;;;;;;;24.83;17.55;;;;;;;19.50;100.00;101584.34;5242463;28;20032;-71
2022/07/21 07:48:06;;;;;;;22.63;16.88;;;;;;;19.45;100.00;101576.72;5245557;28;20446;-72
2022/07/21 07:50:38;;;;;;;22.52;16.70;;;;;;;19.22;100.00;101586.34;5236951;28;20112;-70
2022/07/21 07:53:09;;;;;;;19.38;15.57;;;;;;;19.11;100.00;101576.59;5235480;28;20031;-69
2022/07/21 07:55:40;;;;;;;16.63;13.65;;;;;;;18.92;100.00;101594.66;5233619;28;20017;-69
2022/07/21 07:58:12;;;;;;;18.50;14.10;;;;;;;18.97;100.00;101586.94;5246801;28;20060;-69
2022/07/21 08:00:43;;;;;;;16.33;13.50;;;;;;;18.77;100.00;101585.34;5237407;28;20037;-69
2022/07/21 08:03:14;;;;;;;12.80;11.30;;;;;;;18.57;100.00;101579.25;5228861;28;20218;-68
2022/07/21 08:05:46;;;;;;;15.48;11.32;;;;;;;18.62;100.00;101587.75;5238324;28;20027;-68
2022/07/21 08:08:17;;;;;;;13.95;10.70;;;;;;;18.42;100.00;101581.59;5238141;28;20036;-68
2022/07/21 08:10:49;;;;;;;15.00;12.55;;;;;;;18.45;100.00;101578.59;5231685;28;20033;-69
2022/07/21 08:13:20;;;;;;;14.02;12.00;;;;;;;18.46;100.00;101585.69;5237246;28;20017;-69
2022/07/21 08:15:52;;;;;;;15.10;11.95;;;;;;;18.40;100.00;101579.03;5234425;28;20053;-69
2022/07/21 08:18:23;;;;;;;14.93;11.95;;;;;;;18.45;100.00;101584.00;5235150;28;20041;-69
2022/07/21 08:20:54;;;;;;;13.20;11.40;;;;;;;18.53;100.00;101586.78;5241647;28;20545;-69
2022/07/21 08:23:26;;;;;;;12.35;10.63;;;;;;;18.41;100.00;101586.16;5238990;28;20427;-69
2022/07/21 08:25:57;;;;;;;12.57;9.95;;;;;;;18.38;100.00;101586.44;5246429;28;20032;-69
2022/07/21 08:28:28;;;;;;;13.43;10.02;;;;;;;18.41;100.00;101585.31;5248860;28;20111;-69
2022/07/21 08:31:00;;;;;;;16.58;10.85;;;;;;;18.47;100.00;101578.47;5251677;28;20107;-69
2022/07/21 08:33:31;;;;;;;13.35;10.85;;;;;;;18.46;100.00;101584.84;5237222;28;20029;-68
2022/07/21 08:36:03;;;;;;;12.40;10.15;;;;;;;18.34;100.00;101587.75;5241407;28;20031;-69
2022/07/21 08:38:34;;;;;;;15.60;10.65;;;;;;;18.42;100.00;101584.28;5244894;28;20387;-69
2022/07/21 08:41:08;;;;;;;12.77;11.00;;;;;;;18.33;100.00;101591.47;5242402;28;20037;-69
2022/07/21 08:43:39;;;;;;;14.50;11.23;;;;;;;18.48;100.00;101591.78;5238477;28;20333;-69
2022/07/21 08:46:11;;;;;;;14.23;10.88;;;;;;;18.40;100.00;101595.25;5240287;28;20484;-69
2022/07/21 08:48:43;;;;;;;13.75;11.77;;;;;;;18.41;100.00;101590.72;5243918;28;20048;-69
2022/07/21 08:51:15;;;;;;;16.02;12.13;;;;;;;18.52;100.00;101593.19;5240024;28;20025;-69
2022/07/21 08:53:47;;;;;;;18.45;13.00;;;;;;;18.46;100.00;101591.09;5261268;28;20055;-69
2022/07/21 08:56:19;;;;;;;15.40;12.48;;;;;;;18.49;100.00;101598.06;5236455;28;20057;-69
2022/07/21 08:58:50;;;;;;;14.35;12.60;;;;;;;18.34;100.00;101597.72;5243213;28;20032;-70
2022/07/21 09:01:24;;;;;;;17.17;13.10;;;;;;;18.52;100.00;101590.47;5253428;28;20408;-69
2022/07/21 09:04:19;;;;;;;18.15;14.23;;;;;;;18.48;100.00;101599.06;5236795;28;20598;-69
2022/07/21 09:06:57;;;;;;;20.25;15.23;;;;;;;18.61;100.00;101602.25;5233823;28;20030;-70
2022/07/21 09:09:29;;;;;;;16.40;13.82;;;;;;;18.55;100.00;101590.19;5244709;28;20029;-70
2022/07/21 09:12:02;;;;;;;16.40;14.30;;;;;;;18.56;100.00;101600.03;5241417;28;20525;-70
2022/07/21 09:14:35;;;;;;;17.75;14.43;;;;;;;18.64;100.00;101595.69;5242713;28;20048;-70
2022/07/21 09:17:06;;;;;;;16.67;13.70;;;;;;;18.61;100.00;101596.84;5246959;28;20025;-71
2022/07/21 09:19:41;;;;;;;16.45;13.20;;;;;;;18.66;100.00;101604.50;5250938;28;20090;-71
2022/07/21 09:22:18;;;;;;;16.15;13.20;;;;;;;18.60;100.00;101603.25;5238803;28;20036;-71
2022/07/21 09:24:51;;;;;;;17.00;13.63;;;;;;;18.52;100.00;101609.41;5249252;28;20037;-70
2022/07/21 09:27:24;;;;;;;14.97;13.17;;;;;;;18.52;100.00;101611.25;5249491;28;20025;-71
2022/07/21 09:30:00;;;;;;;17.75;13.85;;;;;;;18.51;100.00;101615.81;5248495;28;20553;-70
2022/07/21 09:32:34;;;;;;;15.20;13.00;;;;;;;18.52;100.00;101612.09;5245087;28;20103;-70
2022/07/21 09:35:10;;;;;;;19.05;14.20;;;;;;;18.46;100.00;101620.81;5250144;28;20056;-70
2022/07/21 09:37:42;;;;;;;13.10;11.52;;;;;;;18.28;100.00;101619.94;5248047;28;20033;-70
2022/07/21 09:40:14;;;;;;;12.60;11.20;;;;;;;18.24;100.00;101619.38;5248097;28;20407;-71
2022/07/21 09:42:50;;;;;;;12.07;10.77;;;;;;;18.29;100.00;101618.91;5245121;28;20039;-70
2022/07/21 09:45:21;;;;;;;9.82;8.73;;;;;;;18.03;100.00;101619.59;5242509;28;20067;-70
2022/07/21 09:47:53;;;;;;;9.50;8.15;;;;;;;17.88;100.00;101615.66;5247536;28;20057;-70
2022/07/21 09:50:24;;;;;;;10.50;8.68;;;;;;;17.83;100.00;101618.75;5244252;28;20100;-70
2022/07/21 09:52:57;;;;;;;9.65;8.65;;;;;;;17.90;100.00;101625.31;5237809;28;20036;-70
2022/07/21 09:55:30;;;;;;;9.23;8.20;;;;;;;17.68;100.00;101621.09;5252014;28;20033;-70
2022/07/21 09:58:02;;;;;;;9.60;8.70;;;;;;;17.62;100.00;101617.13;5252025;28;20039;-70
2022/07/21 10:00:34;;;;;;;10.07;8.93;;;;;;;17.52;100.00;101627.06;5242987;28;20029;-69
2022/07/21 10:03:05;;;;;;;10.32;9.30;;;;;;;17.48;100.00;101625.63;5251352;28;20055;-71
2022/07/21 10:05:37;;;;;;;13.13;9.85;;;;;;;17.63;100.00;101628.75;5244860;28;20028;-70
2022/07/21 10:08:08;;;;;;;13.30;11.80;;;;;;;17.58;100.00;101633.72;5253566;28;20171;-70
2022/07/21 10:10:39;;;;;;;15.10;13.43;;;;;;;17.75;100.00;101637.53;5253139;28;20407;-71
2022/07/21 10:13:11;;;;;;;15.38;13.00;;;;;;;17.51;100.00;101644.25;5249679;28;20092;-70
2022/07/21 10:15:46;;;;;;;14.95;13.43;;;;;;;17.55;100.00;101642.13;5251736;28;20056;-71
2022/07/21 10:18:19;;;;;;;15.90;13.65;;;;;;;17.56;100.00;101649.19;5249482;28;20028;-71
2022/07/21 10:20:59;;;;;;;18.13;14.45;;;;;;;17.54;100.00;101641.25;5250636;28;20040;-71
2022/07/21 10:23:41;;;;;;;19.42;15.55;;;;;;;17.71;100.00;101645.06;5243153;28;20109;-71
2022/07/21 10:26:13;;;;;;;17.38;15.13;;;;;;;17.78;100.00;101648.91;5250847;28;20033;-71
2022/07/21 10:28:44;;;;;;;17.40;14.80;;;;;;;17.79;100.00;101660.53;5250534;28;20024;-70
2022/07/21 10:31:24;;;;;;;21.45;17.25;;;;;;;18.06;100.00;101665.19;5236777;28;20034;-70
2022/07/21 10:33:56;;;;;;;20.50;18.17;;;;;;;18.12;100.00;101653.81;5244027;28;20033;-71
2022/07/21 10:36:28;;;;;;;20.08;16.75;;;;;;;17.97;100.00;101658.84;5243600;28;20033;-72
2022/07/21 10:39:17;;;;;;;20.70;16.80;;;;;;;18.12;100.00;101670.03;5249750;28;20520;-71
2022/07/21 10:41:55;;;;;;;19.02;15.00;;;;;;;17.97;100.00;101669.63;5243098;28;20083;-72
2022/07/21 10:44:32;;;;;;;18.10;15.35;;;;;;;17.87;100.00;101674.19;5240091;28;20132;-72
2022/07/21 10:47:09;;;;;;;17.02;15.10;;;;;;;17.82;100.00;101665.66;5252366;28;20036;-72
2022/07/21 10:49:41;;;;;;;16.48;14.65;;;;;;;17.74;100.00;101671.78;5250313;28;20025;-72
2022/07/21 10:52:34;;;;;;;15.95;12.73;;;;;;;17.57;100.00;101677.91;5239420;28;20490;-72
2022/07/21 10:55:26;;;;;;;14.10;10.63;;;;;;;17.49;100.00;101677.75;5251101;28;20531;-71
2022/07/21 10:58:24;;;;;;;13.18;10.48;;;;;;;17.33;100.00;101679.16;5238795;28;20028;-71
2022/07/21 11:01:03;;;;;;;16.20;12.38;;;;;;;17.30;100.00;101682.16;5247296;28;20443;-70
2022/07/21 11:03:39;;;;;;;20.77;13.93;;;;;;;17.52;100.00;101681.00;5240582;28;20045;-70
2022/07/21 11:06:23;;;;;;;18.58;13.70;;;;;;;17.34;100.00;101675.47;5244422;28;20033;-71
2022/07/21 11:09:04;;;;;;;17.50;13.80;;;;;;;17.32;100.00;101679.34;5240594;28;20071;-72
2022/07/21 11:11:38;;;;;;;18.00;13.55;;;;;;;17.36;100.00;101680.75;5244140;28;20039;-71
2022/07/21 11:14:17;;;;;;;17.77;14.50;;;;;;;17.69;100.00;101686.69;5237003;28;20130;-70
2022/07/21 11:16:59;;;;;;;16.73;13.68;;;;;;;17.63;100.00;101685.44;5241157;28;20063;-72
2022/07/21 11:19:39;;;;;;;15.52;12.63;;;;;;;17.65;100.00;101686.13;5243364;28;20098;-71
2022/07/21 11:22:18;;;;;;;15.38;11.68;;;;;;;17.54;100.00;101689.81;5247722;28;20088;-71
2022/07/21 11:25:02;;;;;;;15.30;11.75;;;;;;;17.66;100.00;101690.56;5255801;28;20361;-70
2022/07/21 11:27:36;;;;;;;16.85;13.05;;;;;;;17.72;100.00;101689.97;5249277;28;20103;-70
2022/07/21 11:30:09;;;;;;;14.18;10.90;;;;;;;17.39;100.00;101702.91;5236560;28;20104;-70
2022/07/21 11:32:47;;;;;;;13.18;11.75;;;;;;;17.38;100.00;101703.88;5246165;28;20025;-71